createdAt,value
2023-03-10T00:01:20.494Z,96.83
2023-03-10T00:03:50.355Z,96.82
2023-03-10T00:06:20.744Z,97.71
2023-03-10T00:08:49.155Z,98.26
2023-03-10T00:11:18.211Z,97.63
2023-03-10T00:13:46.453Z,98.10
2023-03-10T00:16:19.110Z,98.04
2023-03-10T00:18:47.405Z,98.65
2023-03-10T00:21:18.505Z,98.31
2023-03-10T00:23:47.116Z,99.03
2023-03-10T00:26:17.116Z,99.37
2023-03-10T00:28:45.587Z,98.74
2023-03-10T00:31:15.921Z,99.48
2023-03-10T00:33:44.370Z,99.98
2023-03-10T00:36:14.623Z,100.00
2023-03-10T00:38:45.455Z,100.00
2023-03-10T00:41:15.255Z,100.00
2023-03-10T00:43:43.736Z,100.00
2023-03-10T00:46:12.652Z,100.00
2023-03-10T00:48:41.417Z,100.00
2023-03-10T00:51:10.090Z,100.00
2023-03-10T00:53:39.821Z,100.00
2023-03-10T00:56:13.375Z,100.00
2023-03-10T00:58:42.523Z,100.00
2023-03-10T01:01:15.074Z,100.00
2023-03-10T01:03:43.307Z,100.00
2023-03-10T01:06:11.764Z,100.00
2023-03-10T01:08:39.973Z,100.00
2023-03-10T01:11:09.575Z,100.00
2023-03-10T01:13:39.952Z,100.00
2023-03-10T01:16:09.376Z,100.00
2023-03-10T01:18:37.953Z,100.00
2023-03-10T01:21:06.830Z,100.00
2023-03-10T01:23:34.965Z,100.00
2023-03-10T01:26:03.114Z,100.00
2023-03-10T01:28:32.621Z,100.00
2023-03-10T01:31:00.804Z,100.00
2023-03-10T01:33:29.070Z,100.00
2023-03-10T01:35:57.302Z,100.00
2023-03-10T01:38:25.466Z,100.00
2023-03-10T01:40:55.333Z,100.00
2023-03-10T01:43:39.501Z,100.00
2023-03-10T01:46:55.086Z,100.00
2023-03-10T01:49:41.774Z,100.00
2023-03-10T01:52:13.861Z,100.00
2023-03-10T01:54:49.651Z,100.00
2023-03-10T01:57:22.115Z,100.00
2023-03-10T01:59:52.403Z,100.00
2023-03-10T02:02:21.603Z,100.00
2023-03-10T02:04:52.624Z,100.00
2023-03-10T02:07:27.683Z,100.00
2023-03-10T02:09:57.327Z,100.00
2023-03-10T02:12:26.041Z,100.00
2023-03-10T02:14:55.983Z,100.00
2023-03-10T02:17:27.907Z,100.00
2023-03-10T02:20:22.458Z,100.00
2023-03-10T02:22:51.870Z,100.00
2023-03-10T02:25:34.880Z,100.00
2023-03-10T02:28:05.753Z,100.00
2023-03-10T02:30:37.250Z,100.00
2023-03-10T02:33:09.026Z,100.00
2023-03-10T02:35:37.131Z,100.00
2023-03-10T02:38:09.943Z,100.00
2023-03-10T02:40:40.570Z,100.00
2023-03-10T02:43:19.137Z,100.00
2023-03-10T02:45:51.720Z,100.00
2023-03-10T02:48:27.494Z,100.00
2023-03-10T02:50:57.845Z,100.00
2023-03-10T02:53:28.806Z,100.00
2023-03-10T02:55:57.836Z,100.00
2023-03-10T02:58:29.551Z,100.00
2023-03-10T03:00:58.016Z,100.00
2023-03-10T03:03:26.785Z,100.00
2023-03-10T03:05:55.342Z,100.00
2023-03-10T03:08:24.025Z,100.00
2023-03-10T03:10:52.180Z,100.00
2023-03-10T03:13:20.812Z,100.00
2023-03-10T03:15:51.805Z,100.00
2023-03-10T03:18:20.405Z,100.00
2023-03-10T03:20:49.146Z,100.00
2023-03-10T03:23:17.293Z,100.00
2023-03-10T03:25:45.487Z,100.00
2023-03-10T03:28:17.238Z,100.00
2023-03-10T03:30:47.210Z,100.00
2023-03-10T03:33:17.639Z,100.00
2023-03-10T03:35:46.758Z,100.00
2023-03-10T03:38:17.414Z,100.00
2023-03-10T03:40:46.181Z,100.00
2023-03-10T03:43:16.956Z,100.00
2023-03-10T03:45:47.707Z,100.00
2023-03-10T03:48:17.711Z,100.00
2023-03-10T03:50:46.324Z,100.00
2023-03-10T03:53:24.993Z,100.00
2023-03-10T03:55:53.694Z,100.00
2023-03-10T03:58:24.651Z,100.00
2023-03-10T04:00:53.387Z,100.00
2023-03-10T04:03:23.304Z,100.00
2023-03-10T04:05:51.595Z,100.00
2023-03-10T04:08:21.373Z,100.00
2023-03-10T04:10:54.012Z,100.00
2023-03-10T04:13:24.887Z,100.00
2023-03-10T04:15:57.494Z,100.00
2023-03-10T04:18:28.832Z,100.00
2023-03-10T04:20:57.561Z,100.00
2023-03-10T04:23:25.658Z,100.00
2023-03-10T04:25:54.418Z,100.00
2023-03-10T04:28:22.892Z,100.00
2023-03-10T04:30:51.914Z,100.00
2023-03-10T04:33:23.767Z,100.00
2023-03-10T04:35:53.708Z,100.00
2023-03-10T04:38:24.193Z,100.00
2023-03-10T04:40:58.618Z,100.00
2023-03-10T04:43:30.979Z,100.00
2023-03-10T04:46:00.082Z,100.00
2023-03-10T04:48:29.273Z,100.00
2023-03-10T04:50:59.632Z,100.00
2023-03-10T04:53:31.169Z,100.00
2023-03-10T04:55:59.431Z,100.00
2023-03-10T04:58:27.744Z,100.00
2023-03-10T05:01:02.824Z,100.00
2023-03-10T05:03:33.632Z,100.00
2023-03-10T05:06:03.380Z,100.00
2023-03-10T05:08:31.684Z,100.00
2023-03-10T05:11:00.095Z,100.00
2023-03-10T05:13:30.809Z,100.00
2023-03-10T05:16:00.454Z,100.00
2023-03-10T05:18:29.096Z,100.00
2023-03-10T05:20:59.942Z,100.00
2023-03-10T05:23:30.984Z,100.00
2023-03-10T05:25:59.202Z,100.00
2023-03-10T05:28:28.042Z,100.00
2023-03-10T05:30:56.673Z,100.00
2023-03-10T05:33:24.839Z,100.00
2023-03-10T05:35:53.443Z,100.00
2023-03-10T05:38:21.560Z,100.00
2023-03-10T05:40:51.092Z,100.00
2023-03-10T05:43:20.281Z,100.00
2023-03-10T05:45:56.303Z,100.00
2023-03-10T05:48:24.652Z,100.00
2023-03-10T05:51:03.788Z,100.00
2023-03-10T05:53:33.648Z,100.00
2023-03-10T05:56:08.501Z,100.00
2023-03-10T05:58:36.949Z,100.00
2023-03-10T06:01:05.735Z,100.00
2023-03-10T06:03:34.195Z,100.00
2023-03-10T06:06:03.062Z,100.00
2023-03-10T06:08:32.199Z,100.00
2023-03-10T06:11:01.142Z,100.00
2023-03-10T06:13:31.341Z,100.00
2023-03-10T06:16:01.646Z,100.00
2023-03-10T06:18:29.928Z,100.00
2023-03-10T06:20:58.310Z,100.00
2023-03-10T06:23:27.321Z,100.00
2023-03-10T06:25:59.621Z,100.00
2023-03-10T06:28:33.101Z,100.00
2023-03-10T06:31:05.068Z,100.00
2023-03-10T06:33:33.650Z,100.00
2023-03-10T06:36:02.306Z,100.00
2023-03-10T06:38:31.776Z,100.00
2023-03-10T06:40:59.959Z,99.90
2023-03-10T06:43:28.140Z,99.70
2023-03-10T06:45:56.339Z,98.35
2023-03-10T06:48:26.079Z,97.28
2023-03-10T06:50:54.550Z,96.89
2023-03-10T06:53:23.274Z,96.76
2023-03-10T06:56:02.469Z,94.68
2023-03-10T06:58:31.959Z,94.95
2023-03-10T07:01:00.305Z,94.79
2023-03-10T07:03:30.173Z,91.15
2023-03-10T07:05:59.700Z,91.04
2023-03-10T07:08:28.301Z,90.44
2023-03-10T07:10:56.940Z,88.20
2023-03-10T07:13:25.457Z,86.50
2023-03-10T07:15:53.576Z,85.18
2023-03-10T07:18:21.705Z,84.73
2023-03-10T07:20:53.147Z,84.45
2023-03-10T07:23:21.569Z,85.83
2023-03-10T07:25:53.691Z,85.56
2023-03-10T07:28:22.007Z,85.36
2023-03-10T07:30:50.434Z,80.45
2023-03-10T07:33:18.612Z,73.40
2023-03-10T07:35:46.693Z,66.71
2023-03-10T07:38:16.233Z,65.15
2023-03-10T07:40:44.422Z,63.67
2023-03-10T07:43:12.509Z,64.63
2023-03-10T07:45:41.152Z,63.80
2023-03-10T07:48:09.247Z,60.18
2023-03-10T07:50:37.390Z,58.75
2023-03-10T07:53:05.488Z,59.09
2023-03-10T07:55:35.014Z,58.41
2023-03-10T07:58:03.105Z,55.32
2023-03-10T08:00:31.449Z,52.32
2023-03-10T08:02:59.558Z,49.51
2023-03-10T08:05:27.668Z,48.15
2023-03-10T08:07:55.893Z,47.68
2023-03-10T08:10:24.088Z,44.32
2023-03-10T08:12:55.269Z,42.97
2023-03-10T08:15:23.898Z,38.92
2023-03-10T08:17:51.987Z,39.27
2023-03-10T08:20:20.501Z,36.94
2023-03-10T08:22:48.647Z,35.51
2023-03-10T08:25:17.014Z,36.06
2023-03-10T08:27:45.118Z,37.46
2023-03-10T08:30:15.358Z,36.54
2023-03-10T08:32:43.822Z,35.74
2023-03-10T08:35:12.579Z,35.95
2023-03-10T08:37:43.141Z,34.88
2023-03-10T08:40:13.402Z,35.40
2023-03-10T08:42:41.775Z,34.84
2023-03-10T08:45:10.019Z,37.11
2023-03-10T08:47:39.560Z,35.50
2023-03-10T08:50:08.776Z,34.75
2023-03-10T08:52:36.920Z,35.74
2023-03-10T08:55:06.230Z,37.68
2023-03-10T08:57:34.731Z,39.00
2023-03-10T09:00:03.109Z,39.98
2023-03-10T09:02:31.231Z,40.92
2023-03-10T09:05:00.800Z,41.02
2023-03-10T09:07:29.110Z,40.72
2023-03-10T09:09:57.213Z,39.43
2023-03-10T09:12:28.485Z,41.01
2023-03-10T09:14:58.910Z,41.24
2023-03-10T09:17:27.008Z,42.05
2023-03-10T09:19:55.129Z,41.76
2023-03-10T09:22:24.596Z,40.22
2023-03-10T09:24:52.698Z,38.13
2023-03-10T09:27:20.778Z,37.76
2023-03-10T09:29:48.904Z,37.27
2023-03-10T09:32:17.106Z,38.66
2023-03-10T09:34:46.108Z,40.76
2023-03-10T09:37:14.269Z,40.50
2023-03-10T09:39:43.851Z,40.80
2023-03-10T09:42:37.466Z,40.94
2023-03-10T09:45:30.973Z,40.06
2023-03-10T09:48:24.783Z,40.04
2023-03-10T09:50:56.737Z,41.62
2023-03-10T09:53:39.840Z,44.66
2023-03-10T09:56:13.489Z,45.95
2023-03-10T09:58:45.138Z,46.21
2023-03-10T10:01:17.895Z,48.68
2023-03-10T10:03:53.041Z,50.53
2023-03-10T10:06:28.193Z,50.96
2023-03-10T10:09:05.753Z,52.54
2023-03-10T10:11:36.909Z,52.80
2023-03-10T10:14:27.972Z,52.46
2023-03-10T10:17:02.650Z,49.47
2023-03-10T10:19:30.865Z,46.19
2023-03-10T10:22:03.792Z,43.71
2023-03-10T10:24:31.898Z,42.25
2023-03-10T10:27:01.476Z,38.87
2023-03-10T10:29:36.544Z,35.18
2023-03-10T10:32:10.532Z,29.97
2023-03-10T10:34:40.108Z,30.74
2023-03-10T10:37:31.048Z,29.01
2023-03-10T10:40:01.272Z,32.10
2023-03-10T10:42:32.652Z,32.77
2023-03-10T10:45:04.089Z,30.81
2023-03-10T10:47:33.936Z,30.28
2023-03-10T10:50:27.603Z,31.57
2023-03-10T10:53:21.220Z,29.00
2023-03-10T10:56:01.479Z,30.37
2023-03-10T10:58:36.732Z,31.99
2023-03-10T11:01:07.284Z,33.85
2023-03-10T11:03:37.750Z,35.42
2023-03-10T11:06:15.574Z,36.57
2023-03-10T11:08:50.893Z,38.00
2023-03-10T11:11:29.551Z,39.23
2023-03-10T11:14:27.650Z,41.39
2023-03-10T11:17:02.338Z,42.40
2023-03-10T11:19:38.298Z,40.33
2023-03-10T11:22:20.780Z,39.50
2023-03-10T11:24:55.245Z,41.08
2023-03-10T11:27:33.725Z,42.74
2023-03-10T11:30:11.434Z,41.19
2023-03-10T11:32:51.140Z,40.60
2023-03-10T11:35:25.561Z,38.80
2023-03-10T11:38:01.234Z,42.37
2023-03-10T11:40:35.485Z,45.49
2023-03-10T11:43:11.715Z,46.53
2023-03-10T11:45:52.585Z,48.03
2023-03-10T11:48:37.849Z,47.14
2023-03-10T11:51:07.269Z,47.25
2023-03-10T11:53:40.168Z,47.38
2023-03-10T11:56:12.567Z,46.66
2023-03-10T11:58:47.494Z,49.01
2023-03-10T12:01:21.542Z,51.71
2023-03-10T12:03:57.079Z,49.76
2023-03-10T12:06:33.816Z,48.78
2023-03-10T12:09:04.082Z,50.39
2023-03-10T12:11:32.583Z,49.28
2023-03-10T12:14:02.273Z,49.22
2023-03-10T12:16:36.787Z,50.31
2023-03-10T12:19:06.503Z,49.45
2023-03-10T12:21:35.114Z,50.19
2023-03-10T12:24:04.748Z,50.30
2023-03-10T12:27:04.014Z,51.91
2023-03-10T12:29:37.826Z,50.61
2023-03-10T12:32:27.777Z,50.40
2023-03-10T12:35:28.284Z,50.70
2023-03-10T12:38:34.822Z,53.38
2023-03-10T12:41:03.371Z,54.65
2023-03-10T12:44:07.883Z,52.96
2023-03-10T12:46:45.068Z,50.40
2023-03-10T12:49:25.118Z,49.60
2023-03-10T12:51:56.792Z,46.95
2023-03-10T12:54:43.875Z,45.66
2023-03-10T12:57:19.092Z,43.93
2023-03-10T12:59:58.007Z,40.83
2023-03-10T13:02:33.962Z,42.52
2023-03-10T13:05:07.413Z,36.61
2023-03-10T13:07:36.890Z,33.90
2023-03-10T13:10:06.488Z,32.15
2023-03-10T13:12:43.976Z,31.15
2023-03-10T13:15:24.869Z,30.34
2023-03-10T13:17:55.282Z,29.19
2023-03-10T13:20:25.198Z,27.45
2023-03-10T13:22:54.528Z,29.25
2023-03-10T13:25:23.226Z,32.66
2023-03-10T13:27:51.525Z,34.03
2023-03-10T13:30:21.375Z,31.45
2023-03-10T13:32:54.850Z,31.15
2023-03-10T13:35:27.116Z,30.82
2023-03-10T13:38:11.106Z,28.98
2023-03-10T13:40:40.897Z,27.84
2023-03-10T13:43:27.817Z,32.32
2023-03-10T13:45:57.197Z,33.40
2023-03-10T13:48:27.747Z,35.14
2023-03-10T13:51:08.971Z,38.13
2023-03-10T13:53:37.170Z,38.57
2023-03-10T13:56:19.937Z,40.09
2023-03-10T13:58:49.356Z,41.63
2023-03-10T14:01:21.372Z,42.48
2023-03-10T14:03:58.839Z,42.26
2023-03-10T14:06:30.305Z,43.08
2023-03-10T14:08:58.567Z,43.68
2023-03-10T14:11:35.461Z,44.27
2023-03-10T14:14:05.433Z,44.41
2023-03-10T14:16:56.311Z,45.51
2023-03-10T14:19:50.292Z,45.25
2023-03-10T14:22:25.348Z,45.78
2023-03-10T14:24:53.491Z,46.29
2023-03-10T14:27:21.846Z,47.60
2023-03-10T14:29:52.262Z,47.63
2023-03-10T14:32:21.165Z,47.89
2023-03-10T14:34:49.508Z,49.98
2023-03-10T14:37:17.674Z,49.90
2023-03-10T14:39:47.251Z,51.11
2023-03-10T14:42:21.990Z,51.67
2023-03-10T14:44:51.117Z,53.04
2023-03-10T14:47:19.487Z,49.67
2023-03-10T14:49:47.841Z,49.82
2023-03-10T14:52:18.626Z,47.93
2023-03-10T14:54:48.497Z,48.95
2023-03-10T14:57:22.248Z,51.43
2023-03-10T14:59:50.566Z,55.59
2023-03-10T15:02:22.051Z,63.23
2023-03-10T15:04:50.358Z,65.74
2023-03-10T15:07:18.765Z,69.64
2023-03-10T15:09:49.508Z,73.57
2023-03-10T15:12:19.249Z,73.38
2023-03-10T15:14:53.753Z,71.90
2023-03-10T15:17:24.753Z,72.98
2023-03-10T15:19:53.276Z,71.06
2023-03-10T15:22:21.506Z,69.79
2023-03-10T15:24:51.150Z,75.77
2023-03-10T15:27:19.367Z,74.69
2023-03-10T15:29:47.464Z,80.12
2023-03-10T15:32:15.674Z,81.58
2023-03-10T15:34:44.486Z,81.83
2023-03-10T15:37:13.354Z,87.53
2023-03-10T15:39:41.652Z,93.76
2023-03-10T15:42:11.483Z,93.68
2023-03-10T15:44:40.010Z,96.41
2023-03-10T15:47:08.608Z,99.52
2023-03-10T15:49:39.905Z,92.42
2023-03-10T15:52:08.503Z,95.76
2023-03-10T15:54:36.688Z,98.87
2023-03-10T15:57:05.034Z,97.40
2023-03-10T15:59:37.029Z,99.07
2023-03-10T16:02:05.468Z,94.46
2023-03-10T16:04:33.896Z,91.60
2023-03-10T16:07:04.554Z,94.54
2023-03-10T16:09:32.688Z,92.75
2023-03-10T16:12:01.242Z,93.76
2023-03-10T16:14:31.215Z,95.79
2023-03-10T16:17:00.751Z,96.39
2023-03-10T16:19:32.299Z,95.43
2023-03-10T16:22:00.453Z,96.04
2023-03-10T16:24:28.618Z,95.72
2023-03-10T16:26:56.764Z,98.30
2023-03-10T16:29:25.014Z,99.96
2023-03-10T16:31:54.157Z,100.00
2023-03-10T16:34:24.079Z,100.00
2023-03-10T16:36:52.626Z,100.00
2023-03-10T16:39:21.180Z,99.59
2023-03-10T16:41:49.996Z,100.00
2023-03-10T16:44:18.447Z,100.00
2023-03-10T16:46:46.724Z,100.00
2023-03-10T16:49:16.954Z,100.00
2023-03-10T16:51:48.635Z,100.00
2023-03-10T16:54:18.690Z,100.00
2023-03-10T16:56:49.412Z,100.00
2023-03-10T16:59:19.923Z,100.00
2023-03-10T17:01:48.683Z,100.00
2023-03-10T17:04:19.909Z,100.00
2023-03-10T17:06:50.030Z,100.00
2023-03-10T17:09:19.757Z,100.00
2023-03-10T17:11:53.614Z,100.00
2023-03-10T17:14:23.179Z,100.00
2023-03-10T17:16:52.348Z,100.00
2023-03-10T17:19:24.294Z,100.00
2023-03-10T17:21:54.476Z,100.00
2023-03-10T17:24:23.563Z,100.00
2023-03-10T17:26:55.227Z,100.00
2023-03-10T17:29:24.326Z,100.00
2023-03-10T17:31:52.900Z,100.00
2023-03-10T17:34:22.384Z,100.00
2023-03-10T17:36:51.697Z,100.00
2023-03-10T17:39:23.857Z,100.00
2023-03-10T17:41:52.491Z,100.00
2023-03-10T17:44:21.870Z,100.00
2023-03-10T17:46:56.439Z,100.00
2023-03-10T17:49:26.103Z,100.00
2023-03-10T17:51:55.448Z,100.00
2023-03-10T17:54:25.488Z,100.00
2023-03-10T17:56:54.135Z,100.00
2023-03-10T17:59:23.374Z,100.00
2023-03-10T18:01:52.978Z,100.00
2023-03-10T18:04:23.177Z,100.00
2023-03-10T18:06:52.197Z,100.00
2023-03-10T18:09:22.058Z,100.00
2023-03-10T18:11:52.555Z,100.00
2023-03-10T18:14:22.977Z,100.00
2023-03-10T18:16:52.727Z,100.00
2023-03-10T18:19:23.049Z,100.00
2023-03-10T18:21:53.632Z,100.00
2023-03-10T18:24:22.610Z,100.00
2023-03-10T18:26:52.614Z,100.00
2023-03-10T18:29:21.684Z,100.00
2023-03-10T18:31:51.304Z,100.00
2023-03-10T18:34:20.401Z,100.00
2023-03-10T18:36:49.934Z,100.00
2023-03-10T18:39:19.393Z,100.00
2023-03-10T18:41:49.513Z,100.00
2023-03-10T18:44:21.720Z,100.00
2023-03-10T18:46:51.325Z,100.00
2023-03-10T18:49:20.921Z,100.00
2023-03-10T18:51:50.866Z,100.00
2023-03-10T18:54:20.970Z,100.00
2023-03-10T18:56:50.548Z,100.00
2023-03-10T18:59:21.734Z,100.00
2023-03-10T19:01:51.244Z,100.00
2023-03-10T19:04:21.114Z,100.00
2023-03-10T19:06:51.801Z,100.00
2023-03-10T19:09:23.183Z,100.00
2023-03-10T19:11:54.179Z,100.00
2023-03-10T19:14:25.283Z,100.00
2023-03-10T19:16:54.294Z,100.00
2023-03-10T19:19:23.666Z,100.00
2023-03-10T19:21:52.958Z,100.00
2023-03-10T19:24:22.701Z,100.00
2023-03-10T19:26:53.175Z,100.00
2023-03-10T19:29:27.270Z,100.00
2023-03-10T19:31:57.760Z,100.00
2023-03-10T19:34:26.568Z,100.00
2023-03-10T19:36:56.072Z,100.00
2023-03-10T19:39:27.677Z,100.00
2023-03-10T19:41:57.390Z,100.00
2023-03-10T19:44:30.559Z,100.00
2023-03-10T19:47:00.697Z,100.00
2023-03-10T19:49:34.692Z,100.00
2023-03-10T19:52:04.289Z,100.00
2023-03-10T19:54:34.667Z,100.00
2023-03-10T19:57:04.096Z,100.00
2023-03-10T19:59:35.040Z,100.00
2023-03-10T20:02:04.150Z,100.00
2023-03-10T20:04:35.155Z,100.00
2023-03-10T20:07:05.512Z,100.00
2023-03-10T20:09:36.298Z,100.00
2023-03-10T20:12:06.319Z,100.00
2023-03-10T20:14:37.310Z,100.00
2023-03-10T20:17:07.152Z,100.00
2023-03-10T20:19:37.359Z,100.00
2023-03-10T20:22:07.076Z,100.00
2023-03-10T20:24:37.729Z,100.00
2023-03-10T20:27:07.485Z,100.00
2023-03-10T20:29:41.091Z,100.00
2023-03-10T20:32:11.531Z,100.00
2023-03-10T20:34:41.805Z,100.00
2023-03-10T20:37:12.745Z,100.00
2023-03-10T20:39:44.026Z,100.00
2023-03-10T20:42:14.590Z,100.00
2023-03-10T20:44:46.470Z,100.00
2023-03-10T20:47:15.699Z,100.00
2023-03-10T20:49:47.249Z,100.00
2023-03-10T20:52:17.059Z,100.00
2023-03-10T20:54:46.732Z,100.00
2023-03-10T20:57:17.989Z,100.00
2023-03-10T20:59:48.445Z,100.00
2023-03-10T21:02:18.769Z,100.00
2023-03-10T21:04:48.622Z,100.00
2023-03-10T21:07:19.063Z,100.00
2023-03-10T21:09:48.685Z,100.00
2023-03-10T21:12:19.499Z,100.00
2023-03-10T21:14:50.050Z,100.00
2023-03-10T21:17:19.424Z,100.00
2023-03-10T21:19:49.032Z,100.00
2023-03-10T21:22:18.313Z,100.00
2023-03-10T21:24:46.653Z,100.00
2023-03-10T21:27:15.353Z,100.00
2023-03-10T21:29:44.243Z,100.00
2023-03-10T21:32:13.838Z,100.00
2023-03-10T21:34:42.940Z,100.00
2023-03-10T21:37:12.749Z,100.00
2023-03-10T21:39:41.164Z,100.00
2023-03-10T21:42:09.517Z,100.00
2023-03-10T21:44:38.318Z,100.00
2023-03-10T21:47:06.635Z,100.00
2023-03-10T21:49:37.225Z,100.00
2023-03-10T21:52:06.419Z,100.00
2023-03-10T21:54:34.664Z,100.00
2023-03-10T21:57:02.856Z,100.00
2023-03-10T21:59:31.007Z,100.00
2023-03-10T22:01:59.155Z,100.00
2023-03-10T22:04:27.374Z,100.00
2023-03-10T22:06:56.977Z,100.00
2023-03-10T22:09:25.148Z,100.00
2023-03-10T22:11:53.419Z,100.00
2023-03-10T22:14:24.311Z,100.00
2023-03-10T22:16:52.667Z,100.00
2023-03-10T22:19:20.851Z,100.00
2023-03-10T22:21:51.380Z,100.00
2023-03-10T22:24:20.985Z,100.00
2023-03-10T22:26:49.246Z,100.00
2023-03-10T22:29:17.471Z,100.00
2023-03-10T22:31:45.638Z,100.00
2023-03-10T22:34:13.750Z,100.00
2023-03-10T22:36:41.879Z,100.00
2023-03-10T22:39:10.064Z,100.00
2023-03-10T22:41:39.643Z,100.00
2023-03-10T22:44:07.776Z,100.00
2023-03-10T22:46:35.958Z,100.00
2023-03-10T22:49:04.687Z,100.00
2023-03-10T22:51:32.826Z,100.00
2023-03-10T22:54:01.001Z,100.00
2023-03-10T22:56:29.171Z,100.00
2023-03-10T22:58:59.699Z,100.00
2023-03-10T23:01:27.980Z,100.00
2023-03-10T23:03:57.999Z,100.00
2023-03-10T23:06:29.098Z,100.00
2023-03-10T23:08:57.576Z,100.00
2023-03-10T23:11:26.391Z,100.00
2023-03-10T23:13:54.566Z,100.00
2023-03-10T23:16:24.176Z,100.00
2023-03-10T23:18:52.287Z,100.00
2023-03-10T23:21:20.450Z,100.00
2023-03-10T23:23:49.054Z,100.00
2023-03-10T23:26:17.178Z,100.00
2023-03-10T23:28:45.314Z,100.00
2023-03-10T23:31:15.668Z,100.00
2023-03-10T23:33:45.953Z,100.00
2023-03-10T23:36:14.312Z,100.00
2023-03-10T23:38:42.539Z,100.00
2023-03-10T23:41:10.638Z,100.00
2023-03-10T23:43:38.743Z,100.00
2023-03-10T23:46:08.066Z,100.00
2023-03-10T23:48:36.913Z,100.00
2023-03-10T23:51:06.855Z,100.00
2023-03-10T23:53:34.961Z,100.00
2023-03-10T23:56:03.003Z,100.00
2023-03-10T23:58:31.188Z,100.00
